createdAt,value
2023-03-04T00:01:06.748Z,10.00
2023-03-04T00:03:34.895Z,10.10
2023-03-04T00:06:05.479Z,10.00
2023-03-04T00:08:34.039Z,9.80
2023-03-04T00:11:02.345Z,9.90
2023-03-04T00:13:30.605Z,9.80
2023-03-04T00:15:58.697Z,9.80
2023-03-04T00:18:26.814Z,9.80
2023-03-04T00:20:55.090Z,9.70
2023-03-04T00:23:24.727Z,9.70
2023-03-04T00:25:52.867Z,9.70
2023-03-04T00:28:20.936Z,9.50
2023-03-04T00:30:49.091Z,9.50
2023-03-04T00:33:17.419Z,9.60
2023-03-04T00:35:45.649Z,9.50
2023-03-04T00:38:13.744Z,9.50
2023-03-04T00:40:45.083Z,9.40
2023-03-04T00:43:13.222Z,9.40
2023-03-04T00:45:41.221Z,9.20
2023-03-04T00:48:09.273Z,9.20
2023-03-04T00:50:37.659Z,9.10
2023-03-04T00:53:08.606Z,9.30
2023-03-04T00:55:36.670Z,9.30
2023-03-04T00:58:06.249Z,9.40
2023-03-04T01:00:34.462Z,9.30
2023-03-04T01:03:02.562Z,9.30
2023-03-04T01:05:30.745Z,9.30
2023-03-04T01:07:58.723Z,9.20
2023-03-04T01:10:29.339Z,9.30
2023-03-04T01:12:57.457Z,9.30
2023-03-04T01:15:27.046Z,9.30
2023-03-04T01:17:55.615Z,9.30
2023-03-04T01:20:23.778Z,9.30
2023-03-04T01:22:51.844Z,9.30
2023-03-04T01:25:20.019Z,9.30
2023-03-04T01:27:47.970Z,9.30
2023-03-04T01:30:16.237Z,9.10
2023-03-04T01:32:45.769Z,9.10
2023-03-04T01:35:13.892Z,9.10
2023-03-04T01:37:42.068Z,9.10
2023-03-04T01:40:13.286Z,9.10
2023-03-04T01:42:41.539Z,9.20
2023-03-04T01:45:15.896Z,9.10
2023-03-04T01:47:49.339Z,9.10
2023-03-04T01:50:20.926Z,9.00
2023-03-04T01:52:49.119Z,9.00
2023-03-04T01:55:19.529Z,9.00
2023-03-04T01:57:49.227Z,9.00
2023-03-04T02:00:27.800Z,8.90
2023-03-04T02:03:01.311Z,8.90
2023-03-04T02:05:30.062Z,8.80
2023-03-04T02:08:00.171Z,8.80
2023-03-04T02:10:29.070Z,8.70
2023-03-04T02:12:57.640Z,8.70
2023-03-04T02:15:25.838Z,8.80
2023-03-04T02:17:53.902Z,8.80
2023-03-04T02:20:35.520Z,8.60
2023-03-04T02:23:09.621Z,8.50
2023-03-04T02:25:50.633Z,8.40
2023-03-04T02:28:35.105Z,8.40
2023-03-04T02:31:27.176Z,8.40
2023-03-04T02:33:59.360Z,8.40
2023-03-04T02:36:29.410Z,8.40
2023-03-04T02:39:03.630Z,8.50
2023-03-04T02:41:32.446Z,8.40
2023-03-04T02:44:02.817Z,8.40
2023-03-04T02:46:31.134Z,8.50
2023-03-04T02:48:59.571Z,8.40
2023-03-04T02:51:29.459Z,8.30
2023-03-04T02:53:57.601Z,8.20
2023-03-04T02:56:25.779Z,8.20
2023-03-04T02:58:53.881Z,8.40
2023-03-04T03:01:23.733Z,8.30
2023-03-04T03:03:52.101Z,8.20
2023-03-04T03:06:20.162Z,8.20
2023-03-04T03:08:48.280Z,8.10
2023-03-04T03:11:17.250Z,8.10
2023-03-04T03:13:46.397Z,8.10
2023-03-04T03:16:15.456Z,8.20
2023-03-04T03:18:45.591Z,8.10
2023-03-04T03:21:13.786Z,8.10
2023-03-04T03:23:43.664Z,8.10
2023-03-04T03:26:11.770Z,8.10
2023-03-04T03:28:39.834Z,8.10
2023-03-04T03:31:08.170Z,8.20
2023-03-04T03:33:36.516Z,8.10
2023-03-04T03:36:06.974Z,8.10
2023-03-04T03:38:35.482Z,8.20
2023-03-04T03:41:03.433Z,8.10
2023-03-04T03:43:31.553Z,8.10
2023-03-04T03:45:59.618Z,8.00
2023-03-04T03:48:27.991Z,8.00
2023-03-04T03:50:56.005Z,7.90
2023-03-04T03:53:25.593Z,7.80
2023-03-04T03:55:53.674Z,7.70
2023-03-04T03:58:22.062Z,7.60
2023-03-04T04:00:50.163Z,7.70
2023-03-04T04:03:18.815Z,7.70
2023-03-04T04:05:46.858Z,7.70
2023-03-04T04:08:15.075Z,7.70
2023-03-04T04:10:45.318Z,7.60
2023-03-04T04:13:13.537Z,7.70
2023-03-04T04:15:41.668Z,7.60
2023-03-04T04:18:09.951Z,7.50
2023-03-04T04:20:37.914Z,7.50
2023-03-04T04:23:06.237Z,7.60
2023-03-04T04:25:34.426Z,7.60
2023-03-04T04:28:04.285Z,7.60
2023-03-04T04:30:32.442Z,7.50
2023-03-04T04:33:02.192Z,7.60
2023-03-04T04:35:30.609Z,7.60
2023-03-04T04:37:58.770Z,7.60
2023-03-04T04:40:26.854Z,7.50
2023-03-04T04:42:55.121Z,7.50
2023-03-04T04:45:27.783Z,7.50
2023-03-04T04:47:57.726Z,7.50
2023-03-04T04:50:26.204Z,7.50
2023-03-04T04:52:54.353Z,7.50
2023-03-04T04:55:22.741Z,7.40
2023-03-04T04:57:50.738Z,7.40
2023-03-04T05:00:19.800Z,7.40
2023-03-04T05:02:49.281Z,7.30
2023-03-04T05:05:17.551Z,7.20
2023-03-04T05:07:45.493Z,7.20
2023-03-04T05:10:13.623Z,7.30
2023-03-04T05:12:41.664Z,7.40
2023-03-04T05:15:10.535Z,7.40
2023-03-04T05:17:38.525Z,7.40
2023-03-04T05:20:09.825Z,7.50
2023-03-04T05:22:38.026Z,7.40
2023-03-04T05:25:07.303Z,7.40
2023-03-04T05:27:35.248Z,7.40
2023-03-04T05:30:03.117Z,7.40
2023-03-04T05:32:31.194Z,7.40
2023-03-04T05:34:59.154Z,7.30
2023-03-04T05:37:28.683Z,7.20
2023-03-04T05:39:56.617Z,7.10
2023-03-04T05:42:24.813Z,7.10
2023-03-04T05:44:52.953Z,7.10
2023-03-04T05:47:20.972Z,7.20
2023-03-04T05:49:48.890Z,7.20
2023-03-04T05:52:16.982Z,7.30
2023-03-04T05:54:46.364Z,7.40
2023-03-04T05:57:14.422Z,7.50
2023-03-04T05:59:42.313Z,7.30
2023-03-04T06:02:10.340Z,7.10
2023-03-04T06:04:38.236Z,6.90
2023-03-04T06:07:06.066Z,6.70
2023-03-04T06:09:34.367Z,6.80
2023-03-04T06:12:03.781Z,6.90
2023-03-04T06:14:31.536Z,7.10
2023-03-04T06:16:59.460Z,7.00
2023-03-04T06:19:27.428Z,7.00
2023-03-04T06:21:55.269Z,6.70
2023-03-04T06:24:23.499Z,6.80
2023-03-04T06:26:51.258Z,7.00
2023-03-04T06:29:20.629Z,7.00
2023-03-04T06:31:48.768Z,6.70
2023-03-04T06:34:16.683Z,6.90
2023-03-04T06:36:44.772Z,7.10
2023-03-04T06:39:12.578Z,7.20
2023-03-04T06:41:41.021Z,7.30
2023-03-04T06:44:09.236Z,7.40
2023-03-04T06:46:38.796Z,7.40
2023-03-04T06:49:06.817Z,7.50
2023-03-04T06:51:34.827Z,7.40
2023-03-04T06:54:02.741Z,7.50
2023-03-04T06:56:31.054Z,7.50
2023-03-04T06:58:59.513Z,7.60
2023-03-04T07:01:28.923Z,7.60
2023-03-04T07:03:58.741Z,7.70
2023-03-04T07:06:28.939Z,7.70
2023-03-04T07:08:58.156Z,7.80
2023-03-04T07:11:26.446Z,7.90
2023-03-04T07:13:54.742Z,8.00
2023-03-04T07:16:24.094Z,8.10
2023-03-04T07:18:52.185Z,8.20
2023-03-04T07:21:21.564Z,8.20
2023-03-04T07:23:49.579Z,8.30
2023-03-04T07:26:18.045Z,8.30
2023-03-04T07:28:46.187Z,8.40
2023-03-04T07:31:36.127Z,8.40
2023-03-04T07:34:06.431Z,8.40
2023-03-04T07:36:37.497Z,8.60
2023-03-04T07:39:18.154Z,8.60
2023-03-04T07:41:46.108Z,8.60
2023-03-04T07:44:14.020Z,8.70
2023-03-04T07:46:42.070Z,8.80
2023-03-04T07:49:11.907Z,8.80
2023-03-04T07:51:41.700Z,8.90
2023-03-04T07:54:10.600Z,9.00
2023-03-04T07:56:38.997Z,9.00
2023-03-04T07:59:06.786Z,9.10
2023-03-04T08:01:36.789Z,9.20
2023-03-04T08:04:06.213Z,9.30
2023-03-04T08:06:34.735Z,9.30
2023-03-04T08:09:06.603Z,9.40
2023-03-04T08:11:36.652Z,9.50
2023-03-04T08:14:04.684Z,9.60
2023-03-04T08:16:32.589Z,9.70
2023-03-04T08:19:04.469Z,9.80
2023-03-04T08:21:32.505Z,9.90
2023-03-04T08:24:02.767Z,10.00
2023-03-04T08:26:35.714Z,10.10
2023-03-04T08:29:05.215Z,10.20
2023-03-04T08:31:33.533Z,10.40
2023-03-04T08:34:02.658Z,10.60
2023-03-04T08:36:31.019Z,10.70
2023-03-04T08:38:58.991Z,10.90
2023-03-04T08:41:27.739Z,11.10
2023-03-04T08:43:57.380Z,11.30
2023-03-04T08:46:25.374Z,11.40
2023-03-04T08:48:53.345Z,11.50
2023-03-04T08:51:21.619Z,11.60
2023-03-04T08:53:49.522Z,11.80
2023-03-04T08:56:18.667Z,11.90
2023-03-04T08:58:46.790Z,12.00
2023-03-04T09:01:16.785Z,12.10
2023-03-04T09:03:45.534Z,12.10
2023-03-04T09:06:16.009Z,12.20
2023-03-04T09:08:44.602Z,12.30
2023-03-04T09:11:13.402Z,12.40
2023-03-04T09:13:41.342Z,12.40
2023-03-04T09:16:11.291Z,12.50
2023-03-04T09:18:42.088Z,12.60
2023-03-04T09:21:10.477Z,12.70
2023-03-04T09:23:38.848Z,12.80
2023-03-04T09:26:19.201Z,12.90
2023-03-04T09:28:49.714Z,12.90
2023-03-04T09:31:17.703Z,13.10
2023-03-04T09:33:47.600Z,13.10
2023-03-04T09:36:16.169Z,13.20
2023-03-04T09:38:44.352Z,13.30
2023-03-04T09:41:17.506Z,13.40
2023-03-04T09:43:57.997Z,13.50
2023-03-04T09:46:34.398Z,13.60
2023-03-04T09:49:07.353Z,13.60
2023-03-04T09:51:47.266Z,13.70
2023-03-04T09:54:25.615Z,13.80
2023-03-04T09:56:59.372Z,13.90
2023-03-04T09:59:33.633Z,13.90
2023-03-04T10:02:13.822Z,14.00
2023-03-04T10:04:49.561Z,14.10
2023-03-04T10:07:23.188Z,14.20
2023-03-04T10:09:57.634Z,14.30
2023-03-04T10:12:31.651Z,14.40
2023-03-04T10:15:02.240Z,14.40
2023-03-04T10:17:40.013Z,14.50
2023-03-04T10:20:18.888Z,14.50
2023-03-04T10:22:49.056Z,14.60
2023-03-04T10:25:20.652Z,14.70
2023-03-04T10:27:55.861Z,14.80
2023-03-04T10:30:33.084Z,14.90
2023-03-04T10:33:01.145Z,15.10
2023-03-04T10:35:37.666Z,15.20
2023-03-04T10:38:07.136Z,15.20
2023-03-04T10:40:39.805Z,15.10
2023-03-04T10:43:16.472Z,15.20
2023-03-04T10:45:44.791Z,15.40
2023-03-04T10:48:21.854Z,15.60
2023-03-04T10:50:51.425Z,15.60
2023-03-04T10:53:30.291Z,15.50
2023-03-04T10:55:58.480Z,15.40
2023-03-04T10:58:26.527Z,15.40
2023-03-04T11:01:03.301Z,15.50
2023-03-04T11:03:33.988Z,15.80
2023-03-04T11:06:17.599Z,15.90
2023-03-04T11:08:53.602Z,15.90
2023-03-04T11:11:31.453Z,16.00
2023-03-04T11:14:01.928Z,16.00
2023-03-04T11:16:32.393Z,16.20
2023-03-04T11:19:05.780Z,16.10
2023-03-04T11:21:40.358Z,16.00
2023-03-04T11:24:27.801Z,16.10
2023-03-04T11:27:03.998Z,16.20
2023-03-04T11:29:37.569Z,16.50
2023-03-04T11:32:11.593Z,16.50
2023-03-04T11:34:44.593Z,16.50
2023-03-04T11:37:21.776Z,16.60
2023-03-04T11:39:56.173Z,16.60
2023-03-04T11:42:36.000Z,16.60
2023-03-04T11:45:05.491Z,16.60
2023-03-04T11:47:44.579Z,16.60
2023-03-04T11:50:29.946Z,16.70
2023-03-04T11:53:34.126Z,17.00
2023-03-04T11:56:17.434Z,17.20
2023-03-04T11:59:07.840Z,17.20
2023-03-04T12:01:44.041Z,17.40
2023-03-04T12:04:24.763Z,17.50
2023-03-04T12:07:03.632Z,17.50
2023-03-04T12:09:41.856Z,17.60
2023-03-04T12:12:31.116Z,17.60
2023-03-04T12:15:10.021Z,17.80
2023-03-04T12:18:01.028Z,17.80
2023-03-04T12:20:41.811Z,17.80
2023-03-04T12:23:30.386Z,17.80
2023-03-04T12:26:03.372Z,17.90
2023-03-04T12:28:52.441Z,18.00
2023-03-04T12:31:36.709Z,18.20
2023-03-04T12:34:41.504Z,18.00
2023-03-04T12:37:30.501Z,17.90
2023-03-04T12:40:34.279Z,17.90
2023-03-04T12:43:13.500Z,17.90
2023-03-04T12:45:48.564Z,18.00
2023-03-04T12:48:28.735Z,18.20
2023-03-04T12:51:07.664Z,18.50
2023-03-04T12:53:44.105Z,18.50
2023-03-04T12:56:24.418Z,18.40
2023-03-04T12:58:55.846Z,18.20
2023-03-04T13:01:28.584Z,18.20
2023-03-04T13:04:04.267Z,18.30
2023-03-04T13:06:44.268Z,18.40
2023-03-04T13:09:20.253Z,18.40
2023-03-04T13:11:55.851Z,18.60
2023-03-04T13:14:33.524Z,18.80
2023-03-04T13:17:10.035Z,18.70
2023-03-04T13:19:51.263Z,18.70
2023-03-04T13:22:43.778Z,18.50
2023-03-04T13:25:34.233Z,18.50
2023-03-04T13:28:29.717Z,18.70
2023-03-04T13:31:25.103Z,18.80
2023-03-04T13:34:02.261Z,19.00
2023-03-04T13:36:51.973Z,19.10
2023-03-04T13:39:32.526Z,19.00
2023-03-04T13:42:02.289Z,19.00
2023-03-04T13:44:58.289Z,18.90
2023-03-04T13:47:42.624Z,19.00
2023-03-04T13:50:30.132Z,19.00
2023-03-04T13:53:02.076Z,19.10
2023-03-04T13:55:39.343Z,19.20
2023-03-04T13:58:19.927Z,19.30
2023-03-04T14:00:50.955Z,19.30
2023-03-04T14:03:25.731Z,19.30
2023-03-04T14:06:13.227Z,19.40
2023-03-04T14:08:41.881Z,19.30
2023-03-04T14:11:15.522Z,19.20
2023-03-04T14:13:44.948Z,19.10
2023-03-04T14:16:12.752Z,19.10
2023-03-04T14:18:42.837Z,19.10
2023-03-04T14:21:16.057Z,19.00
2023-03-04T14:23:43.851Z,19.10
2023-03-04T14:26:14.389Z,19.20
2023-03-04T14:28:48.354Z,19.20
2023-03-04T14:31:27.832Z,19.20
2023-03-04T14:34:05.330Z,19.30
2023-03-04T14:36:36.707Z,19.40
2023-03-04T14:39:07.866Z,19.60
2023-03-04T14:41:39.217Z,19.80
2023-03-04T14:44:13.255Z,20.00
2023-03-04T14:46:46.130Z,20.20
2023-03-04T14:49:20.850Z,20.40
2023-03-04T14:51:50.422Z,20.40
2023-03-04T14:54:34.071Z,20.60
2023-03-04T14:57:22.334Z,20.80
2023-03-04T14:59:51.392Z,21.00
2023-03-04T15:02:32.096Z,21.30
2023-03-04T15:05:16.867Z,21.60
2023-03-04T15:07:52.121Z,21.90
2023-03-04T15:10:24.852Z,22.00
2023-03-04T15:12:54.632Z,22.10
2023-03-04T15:15:38.935Z,22.30
2023-03-04T15:18:18.939Z,22.50
2023-03-04T15:20:57.010Z,22.90
2023-03-04T15:23:25.553Z,23.30
2023-03-04T15:25:55.006Z,23.60
2023-03-04T15:28:23.470Z,23.80
2023-03-04T15:30:52.152Z,24.10
2023-03-04T15:33:21.355Z,24.10
2023-03-04T15:35:56.452Z,24.30
2023-03-04T15:38:25.661Z,24.50
2023-03-04T15:40:55.565Z,24.60
2023-03-04T15:43:24.548Z,24.70
2023-03-04T15:45:52.890Z,24.60
2023-03-04T15:48:22.753Z,24.90
2023-03-04T15:50:57.255Z,25.20
2023-03-04T15:53:32.589Z,25.60
2023-03-04T15:56:01.814Z,25.90
2023-03-04T15:58:32.635Z,25.60
2023-03-04T16:01:03.252Z,25.60
2023-03-04T16:03:31.384Z,25.50
2023-03-04T16:06:00.986Z,25.40
2023-03-04T16:08:29.686Z,23.80
2023-03-04T16:10:57.869Z,22.40
2023-03-04T16:13:26.209Z,21.50
2023-03-04T16:15:54.147Z,20.80
2023-03-04T16:18:22.647Z,20.30
2023-03-04T16:20:52.312Z,19.80
2023-03-04T16:23:24.866Z,19.40
2023-03-04T16:25:56.561Z,19.10
2023-03-04T16:28:24.982Z,18.80
2023-03-04T16:30:52.739Z,18.50
2023-03-04T16:33:20.646Z,18.30
2023-03-04T16:35:48.978Z,18.00
2023-03-04T16:38:27.455Z,17.80
2023-03-04T16:40:56.627Z,17.60
2023-03-04T16:43:25.772Z,17.60
2023-03-04T16:45:53.820Z,17.40
2023-03-04T16:48:23.359Z,17.30
2023-03-04T16:50:51.716Z,17.20
2023-03-04T16:53:29.145Z,17.00
2023-03-04T16:55:59.550Z,17.00
2023-03-04T16:58:28.219Z,16.90
2023-03-04T17:00:56.272Z,16.70
2023-03-04T17:03:24.867Z,16.50
2023-03-04T17:05:53.623Z,16.10
2023-03-04T17:08:21.632Z,15.90
2023-03-04T17:10:50.927Z,15.50
2023-03-04T17:13:19.430Z,15.60
2023-03-04T17:15:47.447Z,15.60
2023-03-04T17:18:15.911Z,15.40
2023-03-04T17:20:44.355Z,15.10
2023-03-04T17:23:12.374Z,15.00
2023-03-04T17:25:41.074Z,15.10
2023-03-04T17:28:10.964Z,14.90
2023-03-04T17:30:39.089Z,14.60
2023-03-04T17:33:07.456Z,14.50
2023-03-04T17:35:35.290Z,14.60
2023-03-04T17:38:03.268Z,14.60
2023-03-04T17:40:31.656Z,14.60
2023-03-04T17:42:59.821Z,14.40
2023-03-04T17:45:29.565Z,14.20
2023-03-04T17:47:57.790Z,14.20
2023-03-04T17:50:26.054Z,14.00
2023-03-04T17:52:54.327Z,13.90
2023-03-04T17:55:22.396Z,13.90
2023-03-04T17:57:53.206Z,14.00
2023-03-04T18:00:22.295Z,13.90
2023-03-04T18:02:51.861Z,13.70
2023-03-04T18:05:20.286Z,13.80
2023-03-04T18:07:48.316Z,13.80
2023-03-04T18:10:17.008Z,14.00
2023-03-04T18:12:45.083Z,14.10
2023-03-04T18:15:13.286Z,14.00
2023-03-04T18:17:42.713Z,14.00
2023-03-04T18:20:19.045Z,14.00
2023-03-04T18:22:47.262Z,14.00
2023-03-04T18:25:15.748Z,14.10
2023-03-04T18:27:44.381Z,13.90
2023-03-04T18:30:17.944Z,13.70
2023-03-04T18:32:52.258Z,13.80
2023-03-04T18:35:23.149Z,13.80
2023-03-04T18:37:51.709Z,13.80
2023-03-04T18:40:38.730Z,13.90
2023-03-04T18:43:06.545Z,14.00
2023-03-04T18:45:34.825Z,13.90
2023-03-04T18:48:02.983Z,13.50
2023-03-04T18:50:32.584Z,13.40
2023-03-04T18:53:00.754Z,13.30
2023-03-04T18:55:29.040Z,13.40
2023-03-04T18:57:58.906Z,13.50
2023-03-04T19:00:27.151Z,13.70
2023-03-04T19:02:58.637Z,13.80
2023-03-04T19:05:30.324Z,13.80
2023-03-04T19:08:00.513Z,13.70
2023-03-04T19:10:30.296Z,13.60
2023-03-04T19:12:59.780Z,13.60
2023-03-04T19:15:28.463Z,13.40
2023-03-04T19:17:56.573Z,13.40
2023-03-04T19:20:24.539Z,13.30
2023-03-04T19:22:52.474Z,13.20
2023-03-04T19:25:22.125Z,13.20
2023-03-04T19:27:51.559Z,13.00
2023-03-04T19:30:19.874Z,12.80
2023-03-04T19:32:49.352Z,13.00
2023-03-04T19:35:17.453Z,13.10
2023-03-04T19:37:45.644Z,13.00
2023-03-04T19:40:14.421Z,12.90
2023-03-04T19:42:59.488Z,12.90
2023-03-04T19:45:27.821Z,13.00
2023-03-04T19:48:29.308Z,13.00
2023-03-04T19:50:57.637Z,12.70
2023-03-04T19:53:26.123Z,12.30
2023-03-04T19:55:54.522Z,12.30
2023-03-04T19:58:24.756Z,12.40
2023-03-04T20:00:55.127Z,12.50
2023-03-04T20:03:24.558Z,12.50
2023-03-04T20:06:01.966Z,12.40
2023-03-04T20:08:30.267Z,12.30
2023-03-04T20:10:58.894Z,12.20
2023-03-04T20:13:28.804Z,12.40
2023-03-04T20:15:57.150Z,12.40
2023-03-04T20:18:25.505Z,12.40
2023-03-04T20:20:56.904Z,12.20
2023-03-04T20:23:25.237Z,12.20
2023-03-04T20:25:56.015Z,12.30
2023-03-04T20:28:25.090Z,12.20
2023-03-04T20:31:09.356Z,12.30
2023-03-04T20:33:37.962Z,12.30
2023-03-04T20:36:07.661Z,12.30
2023-03-04T20:38:35.850Z,12.20
2023-03-04T20:41:05.760Z,12.20
2023-03-04T20:43:33.904Z,12.10
2023-03-04T20:46:29.642Z,12.00
2023-03-04T20:49:00.129Z,12.00
2023-03-04T20:51:29.105Z,11.90
2023-03-04T20:53:57.496Z,11.80
2023-03-04T20:56:27.106Z,11.70
2023-03-04T20:58:57.360Z,11.70
2023-03-04T21:01:26.451Z,11.70
2023-03-04T21:03:56.560Z,11.70
2023-03-04T21:06:29.728Z,11.70
2023-03-04T21:09:01.043Z,11.60
2023-03-04T21:11:29.567Z,11.60
2023-03-04T21:13:58.062Z,11.40
2023-03-04T21:16:30.528Z,11.30
2023-03-04T21:19:01.094Z,11.30
2023-03-04T21:21:30.748Z,11.20
2023-03-04T21:24:00.903Z,11.20
2023-03-04T21:26:28.996Z,11.20
2023-03-04T21:28:57.244Z,11.20
2023-03-04T21:31:27.858Z,11.00
2023-03-04T21:34:01.701Z,10.80
2023-03-04T21:36:31.315Z,10.90
2023-03-04T21:38:59.436Z,11.00
2023-03-04T21:41:28.092Z,11.00
2023-03-04T21:43:57.054Z,10.90
2023-03-04T21:46:26.172Z,10.70
2023-03-04T21:48:54.463Z,10.70
2023-03-04T21:51:23.095Z,10.60
2023-03-04T21:53:52.781Z,10.40
2023-03-04T21:56:23.980Z,10.60
2023-03-04T21:58:52.644Z,10.60
2023-03-04T22:01:22.647Z,10.50
2023-03-04T22:03:52.397Z,10.50
2023-03-04T22:06:23.608Z,10.50
2023-03-04T22:08:55.524Z,10.60
2023-03-04T22:11:25.340Z,10.60
2023-03-04T22:13:54.300Z,10.60
2023-03-04T22:16:23.405Z,10.30
2023-03-04T22:18:52.600Z,10.40
2023-03-04T22:21:28.549Z,10.40
2023-03-04T22:23:59.096Z,10.50
2023-03-04T22:26:32.897Z,10.50
2023-03-04T22:29:02.332Z,10.40
2023-03-04T22:31:32.566Z,10.40
2023-03-04T22:34:02.744Z,10.40
2023-03-04T22:36:32.516Z,10.40
2023-03-04T22:39:03.433Z,10.40
2023-03-04T22:41:31.736Z,10.40
2023-03-04T22:44:00.567Z,10.30
2023-03-04T22:46:31.519Z,10.40
2023-03-04T22:49:01.926Z,10.20
2023-03-04T22:51:30.303Z,10.00
2023-03-04T22:53:58.931Z,10.00
2023-03-04T22:56:28.891Z,10.10
2023-03-04T22:58:57.081Z,9.90
2023-03-04T23:01:25.728Z,9.90
2023-03-04T23:03:54.238Z,9.90
2023-03-04T23:06:25.459Z,9.70
2023-03-04T23:08:53.813Z,9.60
2023-03-04T23:11:25.794Z,9.70
2023-03-04T23:13:56.354Z,9.80
2023-03-04T23:16:25.752Z,9.70
2023-03-04T23:18:54.065Z,9.80
2023-03-04T23:21:23.958Z,9.60
2023-03-04T23:23:52.657Z,9.60
2023-03-04T23:26:22.652Z,9.60
2023-03-04T23:28:51.430Z,9.70
2023-03-04T23:31:21.211Z,9.60
2023-03-04T23:33:49.575Z,9.50
2023-03-04T23:36:19.806Z,9.40
2023-03-04T23:38:48.944Z,9.40
2023-03-04T23:41:19.482Z,9.40
2023-03-04T23:43:48.499Z,9.50
2023-03-04T23:46:16.736Z,9.60
2023-03-04T23:48:47.192Z,9.60
2023-03-04T23:51:17.650Z,9.60
2023-03-04T23:53:46.345Z,9.50
2023-03-04T23:56:16.474Z,9.40
2023-03-04T23:58:45.078Z,9.40
